Nearby METAR Reports

 

EGWC - Cosford Raf, United Kingdom
Distance from station: SSW 22km
Updated: 23/09/2020 14:50
NOT Current
Nearby showers, Mostly cloudy
Nearby showers, Mostly cloudy
 Wind from WNW
Wind: WNW 5 mph , 7 km/h
Temperature: 13°C
Dew Point: 11°C
Humidity: 88%
Barometer: 999 hPa
Summary: Nearby Showers
Clouds: Mostly cloudy
Visibility: 6 miles , 10 km
Cloud details: Few Clouds 244 m
Mostly cloudy 457 m
2020/09/23 13:50 EGWC 231350Z 29004KT 9999 VCSH FEW008 BKN015 13/11 Q0999 RMK WHT
EGOS - Shawbury Raf, United Kingdom
Distance from station: W 37km
Updated: 25/09/2020 13:50
Partly cloudy
Partly cloudy
 Wind from NW
Wind: NW 23 mph , 37 km/h, Gust: 37 mph , 59 km/h
Temperature: 13°C
Dew Point: 5°C
Humidity: 59%
Barometer: 1008 hPa
Clouds: Partly cloudy
Visibility: 6 miles , 10 km
Cloud details: Partly cloudy 975 m
2020/09/25 12:50 EGOS 251250Z 32020G32KT 9999 SCT032 13/05 Q1008 NOSIG RMK BLU BLU
 
EGBB - Birmingham Airpo, United Kingdom
Distance from station: SE 44km
Updated: 25/09/2020 14:20
Partly cloudy
Partly cloudy
 Wind from NW
Wind: NW 28 mph , 44 km/h, Gust: 40 mph , 65 km/h
Temperature: 13°C
Dew Point: 2°C
Humidity: 47%
Barometer: 1006 hPa
Clouds: Partly cloudy
Visibility: 6 miles , 10 km
Cloud details: Partly cloudy 1250 m
2020/09/25 13:20 EGBB 251320Z 32024G35KT 9999 SCT041 13/02 Q1006
EGNX - East Midlands, United Kingdom
Distance from station: E 54km
Updated: 25/09/2020 14:20
Mostly cloudy
Mostly cloudy
 Wind from WNW
Wind: WNW 24 mph , 39 km/h, Gust: 36 mph , 57 km/h
Temperature: 12°C
Dew Point: 3°C
Humidity: 54%
Barometer: 1005 hPa
Clouds: Mostly cloudy
Visibility: 6 miles , 10 km
Cloud details: Mostly cloudy 1250 m
2020/09/25 13:20 EGNX 251320Z 29021G31KT 9999 BKN041 12/03 Q1005
 
EGCC - Manchester Intl, United Kingdom
Distance from station: N 63km
Updated: 25/09/2020 14:20
Mostly cloudy
Mostly cloudy
 Wind from NW
Wind: NW 21 mph , 33 km/h
Temperature: 13°C
Dew Point: 3°C
Humidity: 51%
Barometer: 1007 hPa
Clouds: Mostly cloudy
Visibility: 6 miles , 10 km
Cloud details: Mostly cloudy 1280 m
2020/09/25 13:20 EGCC 251320Z AUTO 31018KT 9999 BKN042 13/03 Q1007 NOSIG
EGBE - Coventry Airport, United Kingdom
Distance from station: SE 65km
Updated: 18/07/2017 14:50
NOT Current
Clear
Clear
 Wind from E
Wind: E 16 mph , 26 km/h
Temperature: 27°C
Heat Index: 27°C
Dew Point: 14°C
Humidity: 45%
Barometer: 1015 hPa
Summary: Clear
Visibility: greater than 7 miles , 10 km
2017/07/18 13:50 EGBE 181350Z 10014KT 060V120 CAVOK 27/14 Q1015
 
EGNR - Hawarden (aut), United Kingdom
Distance from station: NW 70km
Updated: 25/09/2020 14:20
Mostly cloudy
Mostly cloudy
 Wind from NNW
Wind: NNW 22 mph , 35 km/h, Gust: 33 mph , 54 km/h
Temperature: 13°C
Dew Point: 5°C
Humidity: 59%
Barometer: 1010 hPa
Clouds: Mostly cloudy
Visibility: 6 miles , 10 km
Cloud details: Partly cloudy 1097 m
Mostly cloudy 1311 m
2020/09/25 13:20 EGNR 251320Z 33019G29KT 9999 SCT036 BKN043 13/05 Q1010
EGGP - Liverpool Airpor, United Kingdom
Distance from station: NW 76km
Updated: 25/09/2020 14:20
Partly cloudy
Partly cloudy
 Wind from NNW
Wind: NNW 20 mph , 31 km/h, Gust: 36 mph , 57 km/h
Temperature: 13°C
Dew Point: 5°C
Humidity: 59%
Barometer: 1009 hPa
Clouds: Partly cloudy
Visibility: 6 miles , 10 km
Cloud details: Partly cloudy 1036 m
Partly cloudy 1341 m
2020/09/25 13:20 EGGP 251320Z 33017G31KT 9999 SCT034 SCT044 13/05 Q1009